Etusivu
METAR-TAF:

METAR-TAF

Lentoasemat :

Kuwaitin kansainvälinen lentoasema

Kuwait, Kuwait

Leveyspiiri: 29-13N, Pituuspiiri: 047-59E, korkeus merenpinnasta: 55 m

Tämänhetkinen sää

Tämä raportti tehtiin 38 minuuttia sitten, kello 16.00 UTC
Tuuli 8 kn etelästä/lounaasta
Lämpötila 30°C
Kosteus 35%
Ilmanpaine 1009 hPa
Näkyvyys 10 km tai enemmän
Hajanaisia pilviä 3000 ft:n korkeudessa, Cumulonimbus.
Hajonneita pilviä 8000 ft:n korkeudessa
ukkosmyrsky, (heikkoa

METAR: OKBK 211600Z 21008KT 9999 -TS SCT030CB BKN080 30/13 Q1009 NOSIG

Aika: 19:38 (16:38 UTC)

Sääennuste

Tämä raportti tehtiin 5 tuntia ja 53 minuuttia sitten, kello 10.45 UTC
Ennuste voimassa 21. päivästä klo 12 UTC - 22. päivään klo 18 UTC
Tuuli 10 kn idästä/koillisesta
Näkyvyys: 7000 m

TAF: OKBK 211045Z 2112/2218 07010KT 7000 NSC

Säähavainnot ja -ennusteet yli 4000 lentoasemalta (METAR- ja TAF-raportit).

Käytössä olevat sääasemat on merkitty karttaan keltaisilla ja punaisilla pisteillä.

Aseta hiiri pisteen päälle nähdäksesi sääaseman nimen.

Klikkaa sitten nähdäksesi säähavainnot ja -ennusteet.

Kartan vaihtaminen: klikkaa mustalla rastilla varustettuja vihreitä pisteitä, niin voit zoomata sisään; viivalla varustettua vihreää pistettä, niin voit zoomata ulos tai vihreitä nuolia, niin pääset viereisille kartoille.


METAR-TAF: